Pagrindinis puslapis
METAR-TAF:

METAR-TAF

Oro uostai :

Sočis, Rusija

platuma: 43-26N, ilguma: 039-54E, Aukštis: 16 m

Dabartinis oras

Ataskaita buvo paskelbta 16 minutes, ne 13:00 UTC
Vėjas 6 kt iš Vakarų
Temperatūra 21°C
Drėgmė 69%
Slėgis 1017 hPa
Matomumas 10 km arba daugiau

METAR: URSS 161300Z 27003MPS 9999 NSC 21/15 Q1017 R02/010070 R06/010070 NOSIG RMK R06/29004MPS QFE761

Laikas: 16:16 (13:16 UTC)

Prognozė

Ataskaita buvo paskelbta 2 valandos ir 19 minutes, ne 10:57 UTC
Prognozė galioja nuo 16 metu 12 UTC su 17 metu 12 UTC
Vėjas 8 kt iš Vakarų su gūsio iki 17 kt
Matomumas 10 km arba daugiau
Tapsmas
nuo 16 metu 15 UTC su 16 metu 17 UTC
Vėjas 12 kt iš Šiaurės Rytų
Tapsmas
nuo 17 metu 08 UTC su 17 metu 09 UTC
Vėjas 6 kt iš Pietvakarių su gūsio iki 16 kt
Tapsmas
nuo 17 metu 10 UTC su 17 metu 12 UTC
Vėjas 8 kt iš Vakarų su gūsio iki 17 kt

TAF: URSS 161057Z 1612/1712 27004G09MPS 9999 NSC BECMG 1615/1617 04006MPS BECMG 1708/1709 23003G08MPS BECMG 1710/1712 28004G09MPS

Orai ataskaitas ir orų prognozės (METAR, TAF).

turimą stotys yra geltonos ir raudonos taškus žemėlapyje.

Perkelti pele per norėdami pamatyti stoties vardą.

Tada spustelėkite, norėdami matyti oro stebėjimo ir prognozės.

Norėdami pakeisti žemėlapį: spustelėkite ant žalios mygtukų su juodo kryžiaus žemyn,; žalią mygtuką su brūkšneliu, jei norite nutolinti; arba žalių rodyklių gretimoms žemėlapius.


METAR-TAF: